Midland, TX

12:43 AM CDT on April 21, 2015 (GMT -0500)
Midland International | | Change Station
CLOSE
Current Station
Airport
Location: Midland,
Elevation: 2861 ft
Nearby Weather Stations

Elev 2861 ft 31.95 °N, 102.21 °W | Updated 50 minutes ago

Clear
Clear
61 °F
Feels Like 61 °F
N
15
Wind Variable Wind from South

Today
High -- | Low -- °F
--% Chance of Precip.
Yesterday
High -- | Low -- °F
Precip. -- in
7:13 AM 8:22 PM
Waxing Crescent, 8% visible
Pressure 29.86 in
Visibility 10.0 miles
Clouds Clear
Dew Point 39 °F
Humidity 44%
Rainfall 0.00 in
Snow Depth Not available.
UV 0 out of 12
Pollen 9.10 out of 12
Air Quality Not available.
Flu Activity Local Activity
METAR KMAF 210453Z 17013KT 10SM CLR 16/04 A2994 RMK AO2 SLP109 T01610039

More Conditions Fewer Conditions

Pressure 29.86 in
Visibility 10.0 miles
Clouds Clear
Dew Point 39 °F
Humidity 44%
Rainfall 0.00 in
Snow Depth Not available.
UV 0 out of 12
Pollen 9.10 out of 12
Air Quality Not available.
Flu Activity Local Activity
METAR KMAF 210453Z 17013KT 10SM CLR 16/04 A2994 RMK AO2 SLP109 T01610039

More Conditions Fewer Conditions

10-Day Weather Forecast

Almanac

Astronomy

Apr. 21, 2015 Rise Set
Actual Time
Civil Twilight
Nautical Twilight
Astronomical Twilight
Moon
Length of Visible Light
Length of Day
Tomorrow will be .
, % of the Moon is Illuminated

Today's Extremes

State Highs State Lows

Community

WunderPhotos

Upload Photos

1,815,316 photos uploaded!

WunderBlogs® & News

Nearby

Air Quality

  Air Quality AQ Index Pollutant
Not available.

Snow Depth

Station Depth Elevation

Earthquake Activity

City Distance Mag. Time & Date
Minimum magnitude displayed is 2.5.

Coastal Water Temperatures

Place Temperature

Stations

Nearby Weather Stations

Station Location Temp. Windchill Dew Point Humidity Wind Precip. Elev Updated Type